Aéroport international Pierre-Elliott-Trudeau de Montréal

CYUL

11. August 2022

Uhrzeit Code Wetter Temp. Sichtweite Wolkendecke Wind METAR/SPECI
12:00 pm
V
73 °F 25 mi 5.000 ft Var Var 2 kt METAR CYMX 111600Z VRB02KT 25SM FEW025 BKN050TCU BKN120 23/17 A2988 RMK CU1TCU4AC1 SLP119 DENSITY ALT 1400FT
11:00 am
V
72 °F 25 mi 12.000 ft Var 000° 0 kt METAR CYMX 111500Z 00000KT 25SM FEW050TCU SCT090 BKN120 22/18 A2988 RMK TCU2ACC1AC2 SLP122 DENSITY ALT 1200FT
10:00 am
V
64 °F 25 mi 12.000 ft 260° 260° 5 kt METAR CYMX 111400Z 26005KT 210V280 25SM FEW050TCU SCT100 BKN120 18/16 A2988 RMK TCU2ACC2AC2 SLP122 DENSITY ALT 800FT
9:00 am
V
63 °F 25 mi 12.000 ft 250° 250° 4 kt METAR CYMX 111300Z 25004KT 190V280 25SM FEW040TCU FEW070 BKN120 17/16 A2988 RMK TCU1AC1AC4 SLP121 DENSITY ALT 700FT
8:00 am
V
63 °F 25 mi 15.000 ft 250° 250° 5 kt METAR CYMX 111200Z 25005KT 200V360 25SM FEW050TCU FEW120 BKN150 17/16 A2988 RMK TCU1AC1AC4 SLP121 DENSITY ALT 600FT
7:00 am
V
61 °F 25 mi 15.000 ft 240° 240° 2 kt METAR CYMX 111100Z 24002KT 25SM FEW120 BKN150 16/15 A2987 RMK AC2AC3 SLP118 DENSITY ALT 600FT
6:00 am
V
61 °F 25 mi 23.000 ft 230° 230° 3 kt METAR CYMX 111000Z 23003KT 180V280 25SM SCT140 BKN230 16/15 A2987 RMK AC4CI1 SLP118 DENSITY ALT 500FT
5:00 am
V
61 °F 25 mi - 220° 220° 4 kt METAR CYMX 110900Z 22004KT 190V250 25SM SCT150 16/15 A2988 RMK AC4 SLP121 DENSITY ALT 500FT
4:00 am
V
57 °F 25 mi - Var Var 2 kt METAR CYMX 110800Z VRB02KT 25SM FEW230 14/14 A2989 RMK CI1 SLP125 DENSITY ALT 300FT
3:00 am
V
57 °F 25 mi - 170° 170° 3 kt METAR CYMX 110700Z 17003KT 25SM SKC 14/14 A2990 RMK SLP128 DENSITY ALT 300FT
2:00 am
V
61 °F 25 mi - Var Var 2 kt METAR CYMX 110600Z VRB02KT 25SM FEW260 16/15 A2992 RMK CI2 SLP136 DENSITY ALT 400FT
1:00 am
V
59 °F 25 mi - Var 000° 0 kt METAR CYMX 110500Z 00000KT 25SM FEW240 15/15 A2994 RMK CI1 SLP140 DENSITY ALT 400FT
12:00 am
V
59 °F 25 mi - Var Var 2 kt METAR CYMX 110400Z VRB02KT 25SM FEW240 15/15 A2994 RMK CI2 SLP141 DENSITY ALT 400FT

10. August 2022

Uhrzeit Code Wetter Temp. Sichtweite Wolkendecke Wind METAR/SPECI
11:00 pm
V
61 °F 25 mi - Var 000° 0 kt METAR CYMX 110300Z 00000KT 25SM SCT230 16/15 A2995 RMK CI3 SLP145 DENSITY ALT 400FT
8:00 am
V
64 °F 25 mi 4.500 ft Var 000° 0 kt METAR CYMX 101200Z 00000KT 25SM SCT038 OVC045 18/16 A3011 RMK SC4SC4 SLP198 DENSITY ALT 500FT
7:00 am
V
61 °F 25 mi 4.000 ft Var Var 2 kt METAR CYMX 101100Z VRB02KT 25SM FEW015 OVC040 16/15 A3009 RMK CU1SC7 SLP193 DENSITY ALT 300FT
6:00 am
V
59 °F 25 mi 4.300 ft Var 000° 0 kt METAR CYMX 101000Z 00000KT 25SM OVC043 15/15 A3008 RMK SC7 SLP189
5:00 am
V
59 °F 25 mi 4.300 ft Var 000° 0 kt METAR CYMX 100900Z 00000KT 25SM OVC043 15/15 A3007 RMK SC8 SLP187 DENSITY ALT 300FT
4:00 am
V
61 °F 25 mi 4.300 ft Var 000° 0 kt METAR CYMX 100800Z 00000KT 25SM OVC043 16/15 A3007 RMK SC8 SLP186 DENSITY ALT 300FT
3:00 am
V
61 °F 25 mi 4.500 ft Var 000° 0 kt METAR CYMX 100700Z 00000KT 25SM OVC045 16/15 A3007 RMK SC8 SLP184 DENSITY ALT 300FT
2:00 am
V
61 °F 25 mi 4.800 ft 270° 270° 2 kt METAR CYMX 100600Z 27002KT 25SM OVC048 16/15 A3006 RMK SC8 SLP182 DENSITY ALT 300FT
1:00 am
V
61 °F 25 mi 5.000 ft 300° 300° 2 kt METAR CYMX 100500Z 30002KT 25SM OVC050 16/15 A3006 RMK SC8 SLP184 DENSITY ALT 300FT
12:00 am
V
61 °F 25 mi 4.800 ft 350° 350° 3 kt METAR CYMX 100400Z 35003KT 25SM OVC048 16/15 A3006 RMK SC8 SLP183 DENSITY ALT 400FT

9. August 2022

Uhrzeit Code Wetter Temp. Sichtweite Wolkendecke Wind METAR/SPECI
11:00 pm
V
61 °F 25 mi 4.900 ft Var 000° 0 kt METAR CYMX 100300Z 00000KT 25SM OVC049 16/15 A3006 RMK SC8 SLP182 DENSITY ALT 400FT
10:00 pm
V
61 °F 25 mi 4.800 ft 350° 350° 2 kt METAR CYMX 100200Z 35002KT 25SM OVC048 16/15 A3006 RMK SC8 SLP183 DENSITY ALT 300FT
9:00 pm
V
61 °F 25 mi 4.800 ft Var 000° 0 kt METAR CYMX 100100Z 00000KT 25SM FEW040 BKN048 16/15 A3006 RMK CF2SC5 SLP181 DENSITY ALT 300FT
8:00 pm
V
63 °F 25 mi 5.100 ft Var 000° 0 kt METAR CYMX 100000Z 00000KT 25SM SCT030 BKN051 17/15 A3004 RMK SC3SC4 SLP177 DENSITY ALT 500FT
7:00 pm
V
64 °F 30 mi 4.000 ft Var Var 2 kt METAR CYMX 092300Z VRB02KT 30SM SCT022 BKN040 BKN120 18/14 A3004 RMK CF4SC2AC1 SLP175 DENSITY ALT 600FT
6:00 pm
M
64 °F 25 mi 2.500 ft Var Var 2 kt METAR CYMX 092200Z VRB02KT 25SM -SHRA BKN025 BKN035 OVC045 18/14 A3003 RMK CU5SC2SC1 SLP172 DENSITY ALT 600FT
5:00 pm
V
66 °F 25 mi 3.500 ft Var 000° 0 kt METAR CYMX 092100Z 00000KT 25SM SCT025 BKN035 OVC045 19/15 A3003 RMK CU4SC3SC1 SLP170 DENSITY ALT 700FT
4:39 pm
V
64 °F 25 mi 3.000 ft Var Var 4 kt METAR CYMX 092039Z VRB04KT 25SM -RA SCT020 OVC030 18/14 A3002 RMK CU3SC5 SLP170 DENSITY ALT 600FT
4:00 pm
M
64 °F 25 mi 2.000 ft 080° 080° 3 kt METAR CYMX 092000Z 08003KT 25SM BKN020 OVC032 18/15 A3002 RMK CU5SC3 SLP168 DENSITY ALT 600FT
3:00 pm
V
66 °F 25 mi 3.500 ft 040° 040° 4 kt METAR CYMX 091900Z 04004KT 340V100 25SM SCT020 OVC035 19/14 A3001 RMK CU4SC4 SLP164 DENSITY ALT 800FT
2:00 pm
M
64 °F 25 mi 2.200 ft 050° 050° 5 kt METAR CYMX 091800Z 05005KT 350V110 25SM SCT018 BKN022 BKN035 18/14 A3001 RMK CU3SC2SC2 SLP165 DENSITY ALT 600FT
1:00 pm
M
63 °F 15 mi 1.800 ft 080° 080° 6 kt METAR CYMX 091700Z 08006KT 020V100 15SM -SHRA BKN018 OVC025 17/14 A2999 RMK SC7SC1 CVCTV CLDS EMBD SLP159 DENSITY ALT 600FT
12:00 pm
M
63 °F 25 mi 1.600 ft 060° 060° 5 kt METAR CYMX 091600Z CCA 06005KT 340V110 25SM -SHRA BKN016 OVC035 17/14 A2998 RMK SC7SC1 CVCTV CLDS EMBD SLP154 DENSITY ALT 600FT
11:10 am
M
61 °F 25 mi 1.700 ft 020° 020° 6 kt METAR CYMX 091510Z 02006KT 340V140 25SM -RA OVC017 16/13 A2997 RMK SC8 SLP150 DENSITY ALT 500FT
11:00 am
M
61 °F 15 mi 1.800 ft Var Var 6 kt METAR CYMX 091500Z VRB06KT 15SM OVC018 16/14 A2996 RMK SC8 SLP149 DENSITY ALT 500FT
Ältere Daten

Wir und Dritte verfolgen dein Internetverhalten auf unserer Website mit Cookies. Wenn du fortfährst, gehen wir davon aus, dass du mit unserer Cookie-Richtlinie einverstanden bist. Mehr erfahren